Time,TemperatureF,DewpointF,PressureIn,WindDirection,WindDirectionDegrees,WindSpeedMPH,WindSpeedGustMPH,Humidity,HourlyPrecipIn,Conditions,Clouds,dailyrainin,SolarRadiationWatts/m^2,SoftwareType,DateUTC
2013-01-21 00:22:00,60.0,7.0,-100.00,NNE,32,11.0,18.0,12,0.00,,,-99.99,354.000000,,2013-01-21 00:22:00,
2013-01-21 00:33:00,60.0,7.0,-100.00,NNE,32,11.0,18.0,12,0.00,,,-99.99,354.000000,,2013-01-21 00:33:00,
2013-01-21 00:42:00,60.0,7.0,-100.00,NNE,32,11.0,18.0,12,0.00,,,-99.99,354.000000,,2013-01-21 00:42:00,
2013-01-21 00:50:00,57.0,7.0,-100.00,NNE,30,7.0,16.0,13,0.00,,,-99.99,123.000000,,2013-01-21 00:50:00,
2013-01-21 01:12:00,57.0,7.0,-100.00,NNE,30,7.0,16.0,13,0.00,,,-99.99,123.000000,,2013-01-21 01:12:00,
2013-01-21 01:22:00,57.0,7.0,-100.00,NNE,30,7.0,16.0,13,0.00,,,-99.99,123.000000,,2013-01-21 01:22:00,
2013-01-21 01:32:00,57.0,7.0,-100.00,NNE,30,7.0,16.0,13,0.00,,,-99.99,123.000000,,2013-01-21 01:32:00,
2013-01-21 01:42:00,57.0,7.0,-100.00,NNE,30,7.0,16.0,13,0.00,,,-99.99,123.000000,,2013-01-21 01:42:00,
2013-01-21 02:23:00,47.0,9.0,-100.00,WNW,291,3.0,7.0,21,0.00,,,0.00,5.000000,,2013-01-21 02:23:00,
2013-01-21 02:50:00,44.0,9.0,-100.00,South,184,2.0,5.0,23,0.00,,,0.00,0.000000,,2013-01-21 02:50:00,
2013-01-21 03:23:00,44.0,9.0,-100.00,South,184,2.0,5.0,23,0.00,,,0.00,0.000000,,2013-01-21 03:23:00,
2013-01-21 03:33:00,44.0,9.0,-100.00,South,184,2.0,5.0,23,0.00,,,0.00,0.000000,,2013-01-21 03:33:00,
2013-01-21 03:43:00,44.0,9.0,-100.00,South,184,2.0,5.0,23,0.00,,,0.00,0.000000,,2013-01-21 03:43:00,
2013-01-21 04:12:00,41.0,10.0,-100.00,ESE,113,0.0,4.0,27,0.00,,,0.00,0.000000,,2013-01-21 04:12:00,
2013-01-21 04:22:00,41.0,10.0,-100.00,ESE,113,0.0,4.0,27,0.00,,,0.00,0.000000,,2013-01-21 04:22:00,
2013-01-21 04:50:00,41.0,10.0,-100.00,WSW,240,4.0,7.0,27,0.00,,,0.00,0.000000,,2013-01-21 04:50:00,
2013-01-21 05:12:00,41.0,10.0,-100.00,WSW,240,4.0,7.0,27,0.00,,,0.00,0.000000,,2013-01-21 05:12:00,
2013-01-21 05:22:00,41.0,10.0,-100.00,WSW,240,4.0,7.0,27,0.00,,,0.00,0.000000,,2013-01-21 05:22:00,
2013-01-21 05:33:00,41.0,10.0,-100.00,WSW,240,4.0,7.0,27,0.00,,,0.00,0.000000,,2013-01-21 05:33:00,
2013-01-21 05:42:00,41.0,10.0,-100.00,WSW,240,4.0,7.0,27,0.00,,,0.00,0.000000,,2013-01-21 05:42:00,
2013-01-21 05:50:00,39.0,9.0,-100.00,SW,234,4.0,6.0,29,0.00,,,0.00,0.000000,,2013-01-21 05:50:00,
2013-01-21 06:12:00,39.0,9.0,-100.00,SW,234,4.0,6.0,29,0.00,,,0.00,0.000000,,2013-01-21 06:12:00,
2013-01-21 06:23:00,39.0,9.0,-100.00,SW,234,4.0,6.0,29,0.00,,,0.00,0.000000,,2013-01-21 06:23:00,
2013-01-21 06:32:00,39.0,9.0,-100.00,SW,234,4.0,6.0,29,0.00,,,0.00,0.000000,,2013-01-21 06:32:00,
2013-01-21 06:43:00,39.0,9.0,-100.00,SW,234,4.0,6.0,29,0.00,,,0.00,0.000000,,2013-01-21 06:43:00,
2013-01-21 06:50:00,37.0,11.0,-100.00,WSW,239,4.0,5.0,34,0.00,,,-99.99,0.000000,,2013-01-21 06:50:00,
2013-01-21 07:12:00,37.0,11.0,-100.00,WSW,239,4.0,5.0,34,0.00,,,-99.99,0.000000,,2013-01-21 07:12:00,
2013-01-21 07:22:00,37.0,11.0,-100.00,WSW,239,4.0,5.0,34,0.00,,,-99.99,0.000000,,2013-01-21 07:22:00,
2013-01-21 07:42:00,37.0,11.0,-100.00,WSW,239,4.0,5.0,34,0.00,,,-99.99,0.000000,,2013-01-21 07:42:00,
2013-01-21 08:13:00,34.0,12.0,-100.00,SSW,206,3.0,4.0,39,0.00,,,0.00,0.000000,,2013-01-21 08:13:00,
2013-01-21 08:22:00,34.0,12.0,-100.00,SSW,206,3.0,4.0,39,0.00,,,0.00,0.000000,,2013-01-21 08:22:00,
2013-01-21 09:12:00,35.0,9.0,-100.00,SW,236,3.0,6.0,34,-99.99,,,0.00,0.000000,,2013-01-21 09:12:00,
2013-01-21 09:22:00,35.0,9.0,-100.00,SW,236,3.0,6.0,34,-99.99,,,0.00,0.000000,,2013-01-21 09:22:00,
2013-01-21 09:32:00,35.0,9.0,-100.00,SW,236,3.0,6.0,34,-99.99,,,0.00,0.000000,,2013-01-21 09:32:00,
2013-01-21 09:50:00,37.0,8.0,-100.00,SSW,202,3.0,6.0,30,-99.99,,,0.00,0.000000,,2013-01-21 09:50:00,
2013-01-21 10:12:00,37.0,8.0,-100.00,SSW,202,3.0,6.0,30,-99.99,,,0.00,0.000000,,2013-01-21 10:12:00,
2013-01-21 10:22:00,37.0,8.0,-100.00,SSW,202,3.0,6.0,30,-99.99,,,0.00,0.000000,,2013-01-21 10:22:00,
2013-01-21 10:32:00,37.0,8.0,-100.00,SSW,202,3.0,6.0,30,-99.99,,,0.00,0.000000,,2013-01-21 10:32:00,
2013-01-21 10:42:00,37.0,8.0,-100.00,SSW,202,3.0,6.0,30,-99.99,,,0.00,0.000000,,2013-01-21 10:42:00,
2013-01-21 11:12:00,35.0,8.0,-100.00,SSW,213,1.0,5.0,32,-99.99,,,0.00,0.000000,,2013-01-21 11:12:00,
2013-01-21 11:22:00,35.0,8.0,-100.00,SSW,213,1.0,5.0,32,-99.99,,,0.00,0.000000,,2013-01-21 11:22:00,
2013-01-21 11:32:00,35.0,8.0,-100.00,SSW,213,1.0,5.0,32,-99.99,,,0.00,0.000000,,2013-01-21 11:32:00,
2013-01-21 12:22:00,36.0,9.0,-100.00,East,79,3.0,5.0,32,-99.99,,,0.00,0.000000,,2013-01-21 12:22:00,
2013-01-21 13:12:00,38.0,7.0,-100.00,SSW,193,2.0,5.0,27,-99.99,,,0.00,0.000000,,2013-01-21 13:12:00,
2013-01-21 13:23:00,38.0,7.0,-100.00,SSW,193,2.0,5.0,27,-99.99,,,0.00,0.000000,,2013-01-21 13:23:00,
2013-01-21 14:12:00,37.0,7.0,-100.00,WSW,239,4.0,6.0,28,-99.99,,,0.00,0.000000,,2013-01-21 14:12:00,
2013-01-21 14:23:00,37.0,7.0,-100.00,WSW,239,4.0,6.0,28,-99.99,,,0.00,0.000000,,2013-01-21 14:23:00,
2013-01-21 15:23:00,37.0,7.0,-100.00,SSE,148,2.0,5.0,28,-99.99,,,0.00,1.000000,,2013-01-21 15:23:00,
2013-01-21 15:50:00,48.0,9.0,-100.00,West,281,1.0,6.0,20,-99.99,,,0.00,85.000000,,2013-01-21 15:50:00,
2013-01-21 16:12:00,48.0,9.0,-100.00,West,281,1.0,6.0,20,-99.99,,,0.00,85.000000,,2013-01-21 16:12:00,
2013-01-21 16:23:00,48.0,9.0,-100.00,West,281,1.0,6.0,20,-99.99,,,0.00,85.000000,,2013-01-21 16:23:00,
2013-01-21 16:32:00,48.0,9.0,-100.00,West,281,1.0,6.0,20,-99.99,,,0.00,85.000000,,2013-01-21 16:32:00,
2013-01-21 16:43:00,48.0,9.0,-100.00,West,281,1.0,6.0,20,-99.99,,,0.00,85.000000,,2013-01-21 16:43:00,
2013-01-21 16:50:00,59.0,5.0,-100.00,NE,41,11.0,16.0,11,-99.99,,,0.00,285.000000,,2013-01-21 16:50:00,
2013-01-21 17:22:00,59.0,5.0,-100.00,NE,41,11.0,16.0,11,-99.99,,,0.00,285.000000,,2013-01-21 17:22:00,
2013-01-21 17:33:00,59.0,5.0,-100.00,NE,41,11.0,16.0,11,-99.99,,,0.00,285.000000,,2013-01-21 17:33:00,
2013-01-21 17:42:00,59.0,5.0,-100.00,NE,41,11.0,16.0,11,-99.99,,,0.00,285.000000,,2013-01-21 17:42:00,
2013-01-21 17:50:00,60.0,3.0,-100.00,NNE,30,13.0,19.0,10,0.00,,,0.00,467.000000,,2013-01-21 17:50:00,
2013-01-21 18:12:00,60.0,3.0,-100.00,NNE,30,13.0,19.0,10,0.00,,,0.00,467.000000,,2013-01-21 18:12:00,
2013-01-21 18:22:00,60.0,3.0,-100.00,NNE,30,13.0,19.0,10,0.00,,,0.00,467.000000,,2013-01-21 18:22:00,
2013-01-21 18:33:00,60.0,3.0,-100.00,NNE,30,13.0,19.0,10,0.00,,,0.00,467.000000,,2013-01-21 18:33:00,
2013-01-21 18:42:00,60.0,3.0,-100.00,NNE,30,13.0,19.0,10,0.00,,,0.00,467.000000,,2013-01-21 18:42:00,
2013-01-21 18:50:00,62.0,5.0,-100.00,NE,34,11.0,22.0,10,0.00,,,-99.99,605.000000,,2013-01-21 18:50:00,
2013-01-21 19:12:00,62.0,5.0,-100.00,NE,34,11.0,22.0,10,0.00,,,-99.99,605.000000,,2013-01-21 19:12:00,
2013-01-21 19:22:00,62.0,5.0,-100.00,NE,34,11.0,22.0,10,0.00,,,-99.99,605.000000,,2013-01-21 19:22:00,
2013-01-21 19:33:00,62.0,5.0,-100.00,NE,34,11.0,22.0,10,0.00,,,-99.99,605.000000,,2013-01-21 19:33:00,
2013-01-21 19:42:00,62.0,5.0,-100.00,NE,34,11.0,22.0,10,0.00,,,-99.99,605.000000,,2013-01-21 19:42:00,
2013-01-21 19:50:00,63.0,3.0,-100.00,NE,45,12.0,19.0,9,0.00,,,0.00,682.000000,,2013-01-21 19:50:00,
2013-01-21 20:22:00,63.0,3.0,-100.00,NE,45,12.0,19.0,9,0.00,,,0.00,682.000000,,2013-01-21 20:22:00,
2013-01-21 20:32:00,63.0,3.0,-100.00,NE,45,12.0,19.0,9,0.00,,,0.00,682.000000,,2013-01-21 20:32:00,
2013-01-21 20:43:00,63.0,3.0,-100.00,NE,45,12.0,19.0,9,0.00,,,0.00,682.000000,,2013-01-21 20:43:00,
2013-01-21 20:50:00,62.0,3.0,-100.00,NNE,31,13.0,20.0,9,0.00,,,0.00,692.000000,,2013-01-21 20:50:00,
2013-01-21 21:12:00,62.0,3.0,-100.00,NNE,31,13.0,20.0,9,0.00,,,0.00,692.000000,,2013-01-21 21:12:00,
2013-01-21 21:22:00,62.0,3.0,-100.00,NNE,31,13.0,20.0,9,0.00,,,0.00,692.000000,,2013-01-21 21:22:00,
2013-01-21 21:33:00,62.0,3.0,-100.00,NNE,31,13.0,20.0,9,0.00,,,0.00,692.000000,,2013-01-21 21:33:00,
2013-01-21 21:43:00,62.0,3.0,-100.00,NNE,31,13.0,20.0,9,0.00,,,0.00,692.000000,,2013-01-21 21:43:00,
2013-01-21 21:50:00,63.0,3.0,-100.00,NNE,29,12.0,20.0,9,0.00,,,0.00,633.000000,,2013-01-21 21:50:00,
2013-01-21 22:12:00,63.0,3.0,-100.00,NNE,29,12.0,20.0,9,0.00,,,0.00,633.000000,,2013-01-21 22:12:00,
2013-01-21 22:23:00,63.0,3.0,-100.00,NNE,29,12.0,20.0,9,0.00,,,0.00,633.000000,,2013-01-21 22:23:00,
2013-01-21 22:33:00,63.0,3.0,-100.00,NNE,29,12.0,20.0,9,0.00,,,0.00,633.000000,,2013-01-21 22:33:00,
2013-01-21 22:42:00,63.0,3.0,-100.00,NNE,29,12.0,20.0,9,0.00,,,0.00,633.000000,,2013-01-21 22:42:00,
2013-01-21 22:50:00,63.0,3.0,-100.00,NNE,24,11.0,17.0,9,0.00,,,0.00,512.000000,,2013-01-21 22:50:00,
2013-01-21 23:22:00,63.0,3.0,-100.00,NNE,24,11.0,17.0,9,0.00,,,0.00,512.000000,,2013-01-21 23:22:00,
2013-01-21 23:33:00,63.0,3.0,-100.00,NNE,24,11.0,17.0,9,0.00,,,0.00,512.000000,,2013-01-21 23:33:00,
2013-01-21 23:42:00,63.0,3.0,-100.00,NNE,24,11.0,17.0,9,0.00,,,0.00,512.000000,,2013-01-21 23:42:00,
2013-01-21 23:50:00,62.0,3.0,-100.00,NE,36,10.0,16.0,9,0.00,,,0.00,342.000000,,2013-01-21 23:50:00,